sensor_id;sensor_type;location;lat;lon;timestamp;P1;durP1;ratioP1;P2;durP2;ratioP2
8230;SDS011;4156;50.908;6.974;2023-07-24T00:00:40;3.57;;;2.03;;
8230;SDS011;4156;50.908;6.974;2023-07-24T00:03:06;3.37;;;2.60;;
8230;SDS011;4156;50.908;6.974;2023-07-24T00:05:31;2.67;;;2.17;;
8230;SDS011;4156;50.908;6.974;2023-07-24T00:07:57;2.93;;;2.50;;
8230;SDS011;4156;50.908;6.974;2023-07-24T00:10:22;3.53;;;2.50;;
8230;SDS011;4156;50.908;6.974;2023-07-24T00:12:48;3.77;;;2.47;;
8230;SDS011;4156;50.908;6.974;2023-07-24T00:15:13;2.97;;;2.63;;
8230;SDS011;4156;50.908;6.974;2023-07-24T00:17:39;3.03;;;2.50;;
8230;SDS011;4156;50.908;6.974;2023-07-24T00:20:05;3.40;;;2.67;;
8230;SDS011;4156;50.908;6.974;2023-07-24T00:22:31;4.53;;;2.60;;
8230;SDS011;4156;50.908;6.974;2023-07-24T00:24:57;3.37;;;2.67;;
8230;SDS011;4156;50.908;6.974;2023-07-24T00:27:22;3.77;;;2.30;;
8230;SDS011;4156;50.908;6.974;2023-07-24T00:29:48;3.47;;;2.23;;
8230;SDS011;4156;50.908;6.974;2023-07-24T00:32:13;2.67;;;2.30;;
8230;SDS011;4156;50.908;6.974;2023-07-24T00:34:39;2.90;;;2.37;;
8230;SDS011;4156;50.908;6.974;2023-07-24T00:37:04;4.43;;;2.70;;
8230;SDS011;4156;50.908;6.974;2023-07-24T00:39:30;2.67;;;2.27;;
8230;SDS011;4156;50.908;6.974;2023-07-24T00:41:56;3.97;;;2.50;;
8230;SDS011;4156;50.908;6.974;2023-07-24T00:44:21;2.80;;;2.40;;
8230;SDS011;4156;50.908;6.974;2023-07-24T00:46:47;2.60;;;2.40;;
8230;SDS011;4156;50.908;6.974;2023-07-24T00:49:13;3.47;;;2.60;;
8230;SDS011;4156;50.908;6.974;2023-07-24T00:51:38;3.00;;;2.30;;
8230;SDS011;4156;50.908;6.974;2023-07-24T00:54:04;2.40;;;2.20;;
8230;SDS011;4156;50.908;6.974;2023-07-24T00:56:31;4.10;;;2.80;;
8230;SDS011;4156;50.908;6.974;2023-07-24T00:58:57;3.03;;;2.30;;
8230;SDS011;4156;50.908;6.974;2023-07-24T01:01:24;3.00;;;2.40;;
8230;SDS011;4156;50.908;6.974;2023-07-24T01:03:50;3.23;;;2.40;;
8230;SDS011;4156;50.908;6.974;2023-07-24T01:06:17;4.00;;;2.50;;
8230;SDS011;4156;50.908;6.974;2023-07-24T01:08:42;3.20;;;2.70;;
8230;SDS011;4156;50.908;6.974;2023-07-24T01:11:10;2.80;;;2.50;;
8230;SDS011;4156;50.908;6.974;2023-07-24T01:13:50;2.90;;;2.60;;
8230;SDS011;4156;50.908;6.974;2023-07-24T01:16:21;3.80;;;2.50;;
8230;SDS011;4156;50.908;6.974;2023-07-24T01:18:51;3.17;;;2.73;;
8230;SDS011;4156;50.908;6.974;2023-07-24T01:21:20;4.90;;;2.50;;
8230;SDS011;4156;50.908;6.974;2023-07-24T01:26:28;2.93;;;2.50;;
8230;SDS011;4156;50.908;6.974;2023-07-24T01:28:53;3.10;;;2.50;;
8230;SDS011;4156;50.908;6.974;2023-07-24T01:31:19;3.27;;;2.30;;
8230;SDS011;4156;50.908;6.974;2023-07-24T01:33:44;3.03;;;2.50;;
8230;SDS011;4156;50.908;6.974;2023-07-24T01:36:10;3.70;;;2.73;;
8230;SDS011;4156;50.908;6.974;2023-07-24T01:38:36;4.23;;;2.80;;
8230;SDS011;4156;50.908;6.974;2023-07-24T01:41:03;3.27;;;2.50;;
8230;SDS011;4156;50.908;6.974;2023-07-24T01:43:29;3.23;;;2.50;;
8230;SDS011;4156;50.908;6.974;2023-07-24T01:45:57;4.13;;;2.70;;
8230;SDS011;4156;50.908;6.974;2023-07-24T01:48:23;2.67;;;2.47;;
8230;SDS011;4156;50.908;6.974;2023-07-24T01:50:48;2.97;;;2.67;;
8230;SDS011;4156;50.908;6.974;2023-07-24T01:53:15;3.20;;;2.77;;
8230;SDS011;4156;50.908;6.974;2023-07-24T01:55:40;3.43;;;2.60;;
8230;SDS011;4156;50.908;6.974;2023-07-24T01:58:06;3.83;;;2.53;;
8230;SDS011;4156;50.908;6.974;2023-07-24T02:00:32;3.93;;;2.57;;
8230;SDS011;4156;50.908;6.974;2023-07-24T02:02:57;3.40;;;2.77;;
8230;SDS011;4156;50.908;6.974;2023-07-24T02:05:23;4.23;;;2.80;;
8230;SDS011;4156;50.908;6.974;2023-07-24T02:07:48;3.60;;;2.60;;
8230;SDS011;4156;50.908;6.974;2023-07-24T02:10:14;3.60;;;2.50;;
8230;SDS011;4156;50.908;6.974;2023-07-24T02:12:39;3.00;;;2.50;;
8230;SDS011;4156;50.908;6.974;2023-07-24T02:15:06;3.80;;;2.70;;
8230;SDS011;4156;50.908;6.974;2023-07-24T02:17:32;3.90;;;2.60;;
8230;SDS011;4156;50.908;6.974;2023-07-24T02:19:57;4.57;;;2.63;;
8230;SDS011;4156;50.908;6.974;2023-07-24T02:22:23;3.07;;;2.73;;
8230;SDS011;4156;50.908;6.974;2023-07-24T02:24:49;3.53;;;3.10;;
8230;SDS011;4156;50.908;6.974;2023-07-24T02:27:24;4.27;;;2.77;;
8230;SDS011;4156;50.908;6.974;2023-07-24T02:29:56;4.00;;;2.80;;
8230;SDS011;4156;50.908;6.974;2023-07-24T02:32:21;5.10;;;3.23;;
8230;SDS011;4156;50.908;6.974;2023-07-24T02:34:48;4.67;;;3.27;;
8230;SDS011;4156;50.908;6.974;2023-07-24T02:37:17;5.37;;;2.83;;
8230;SDS011;4156;50.908;6.974;2023-07-24T02:39:43;4.33;;;2.90;;
8230;SDS011;4156;50.908;6.974;2023-07-24T02:42:08;3.40;;;2.43;;
8230;SDS011;4156;50.908;6.974;2023-07-24T02:44:34;4.43;;;3.03;;
8230;SDS011;4156;50.908;6.974;2023-07-24T02:47:00;4.70;;;3.50;;
8230;SDS011;4156;50.908;6.974;2023-07-24T02:49:26;6.47;;;3.03;;
8230;SDS011;4156;50.908;6.974;2023-07-24T02:51:51;4.53;;;2.77;;
8230;SDS011;4156;50.908;6.974;2023-07-24T02:54:17;3.40;;;3.10;;
8230;SDS011;4156;50.908;6.974;2023-07-24T02:56:42;4.50;;;2.80;;
8230;SDS011;4156;50.908;6.974;2023-07-24T02:59:08;4.57;;;3.03;;
8230;SDS011;4156;50.908;6.974;2023-07-24T03:01:33;3.77;;;2.60;;
8230;SDS011;4156;50.908;6.974;2023-07-24T03:03:59;3.27;;;2.67;;
8230;SDS011;4156;50.908;6.974;2023-07-24T03:06:25;4.03;;;3.07;;
8230;SDS011;4156;50.908;6.974;2023-07-24T03:08:50;3.40;;;3.03;;
8230;SDS011;4156;50.908;6.974;2023-07-24T03:11:16;3.47;;;2.53;;
8230;SDS011;4156;50.908;6.974;2023-07-24T03:13:41;3.17;;;2.77;;
8230;SDS011;4156;50.908;6.974;2023-07-24T03:16:08;3.67;;;2.90;;
8230;SDS011;4156;50.908;6.974;2023-07-24T03:18:33;3.80;;;2.90;;
8230;SDS011;4156;50.908;6.974;2023-07-24T03:20:59;3.10;;;2.60;;
8230;SDS011;4156;50.908;6.974;2023-07-24T03:23:24;4.80;;;3.10;;
8230;SDS011;4156;50.908;6.974;2023-07-24T03:25:50;4.50;;;3.20;;
8230;SDS011;4156;50.908;6.974;2023-07-24T03:28:15;6.13;;;2.87;;
8230;SDS011;4156;50.908;6.974;2023-07-24T03:30:41;5.70;;;3.50;;
8230;SDS011;4156;50.908;6.974;2023-07-24T03:33:07;5.63;;;3.20;;
8230;SDS011;4156;50.908;6.974;2023-07-24T03:35:32;3.70;;;2.73;;
8230;SDS011;4156;50.908;6.974;2023-07-24T03:37:58;3.10;;;2.60;;
8230;SDS011;4156;50.908;6.974;2023-07-24T03:40:24;3.47;;;3.00;;
8230;SDS011;4156;50.908;6.974;2023-07-24T03:42:49;5.93;;;3.13;;
8230;SDS011;4156;50.908;6.974;2023-07-24T03:45:15;4.93;;;3.03;;
8230;SDS011;4156;50.908;6.974;2023-07-24T03:47:40;4.23;;;3.20;;
8230;SDS011;4156;50.908;6.974;2023-07-24T03:50:06;3.53;;;2.70;;
8230;SDS011;4156;50.908;6.974;2023-07-24T03:52:31;4.17;;;3.00;;
8230;SDS011;4156;50.908;6.974;2023-07-24T03:54:57;3.93;;;2.80;;
8230;SDS011;4156;50.908;6.974;2023-07-24T03:57:22;4.70;;;3.20;;
8230;SDS011;4156;50.908;6.974;2023-07-24T03:59:48;3.20;;;2.90;;
8230;SDS011;4156;50.908;6.974;2023-07-24T04:02:13;6.30;;;4.07;;
8230;SDS011;4156;50.908;6.974;2023-07-24T04:04:39;3.37;;;2.87;;
8230;SDS011;4156;50.908;6.974;2023-07-24T04:07:05;4.53;;;3.13;;
8230;SDS011;4156;50.908;6.974;2023-07-24T04:09:30;6.93;;;3.47;;
8230;SDS011;4156;50.908;6.974;2023-07-24T04:11:56;5.60;;;3.53;;
8230;SDS011;4156;50.908;6.974;2023-07-24T04:14:21;4.73;;;2.90;;
8230;SDS011;4156;50.908;6.974;2023-07-24T04:16:47;5.43;;;3.33;;
8230;SDS011;4156;50.908;6.974;2023-07-24T04:19:13;4.13;;;3.10;;
8230;SDS011;4156;50.908;6.974;2023-07-24T04:21:38;5.23;;;3.10;;
8230;SDS011;4156;50.908;6.974;2023-07-24T04:24:04;3.20;;;2.77;;
8230;SDS011;4156;50.908;6.974;2023-07-24T04:26:29;3.87;;;3.33;;
8230;SDS011;4156;50.908;6.974;2023-07-24T04:28:55;4.40;;;3.58;;
8230;SDS011;4156;50.908;6.974;2023-07-24T04:31:20;3.70;;;2.93;;
8230;SDS011;4156;50.908;6.974;2023-07-24T04:33:46;4.47;;;3.10;;
8230;SDS011;4156;50.908;6.974;2023-07-24T04:36:12;3.60;;;3.20;;
8230;SDS011;4156;50.908;6.974;2023-07-24T04:38:37;3.67;;;3.07;;
8230;SDS011;4156;50.908;6.974;2023-07-24T04:41:03;3.80;;;3.00;;
8230;SDS011;4156;50.908;6.974;2023-07-24T04:43:29;4.57;;;2.90;;
8230;SDS011;4156;50.908;6.974;2023-07-24T04:45:54;3.43;;;2.90;;
8230;SDS011;4156;50.908;6.974;2023-07-24T04:48:20;3.17;;;2.73;;
8230;SDS011;4156;50.908;6.974;2023-07-24T04:50:45;3.67;;;2.70;;
8230;SDS011;4156;50.908;6.974;2023-07-24T04:53:11;4.33;;;3.53;;
8230;SDS011;4156;50.908;6.974;2023-07-24T04:55:36;4.43;;;3.60;;
8230;SDS011;4156;50.908;6.974;2023-07-24T04:58:02;4.10;;;3.20;;
8230;SDS011;4156;50.908;6.974;2023-07-24T05:00:27;3.57;;;2.90;;
8230;SDS011;4156;50.908;6.974;2023-07-24T05:02:53;3.90;;;3.00;;
8230;SDS011;4156;50.908;6.974;2023-07-24T05:05:18;4.00;;;3.07;;
8230;SDS011;4156;50.908;6.974;2023-07-24T05:07:44;4.70;;;3.20;;
8230;SDS011;4156;50.908;6.974;2023-07-24T05:10:10;4.17;;;3.13;;
8230;SDS011;4156;50.908;6.974;2023-07-24T05:12:35;4.03;;;3.03;;
8230;SDS011;4156;50.908;6.974;2023-07-24T05:15:01;4.00;;;3.10;;
8230;SDS011;4156;50.908;6.974;2023-07-24T05:17:27;4.07;;;3.00;;
8230;SDS011;4156;50.908;6.974;2023-07-24T05:19:53;4.17;;;3.37;;
8230;SDS011;4156;50.908;6.974;2023-07-24T05:22:18;4.63;;;3.30;;
8230;SDS011;4156;50.908;6.974;2023-07-24T05:24:44;6.57;;;3.23;;
8230;SDS011;4156;50.908;6.974;2023-07-24T05:27:09;3.50;;;3.10;;
8230;SDS011;4156;50.908;6.974;2023-07-24T05:29:35;4.97;;;3.00;;
8230;SDS011;4156;50.908;6.974;2023-07-24T05:32:00;4.37;;;2.90;;
8230;SDS011;4156;50.908;6.974;2023-07-24T05:34:26;5.47;;;3.40;;
8230;SDS011;4156;50.908;6.974;2023-07-24T05:36:51;4.23;;;3.53;;
8230;SDS011;4156;50.908;6.974;2023-07-24T05:39:17;5.40;;;3.10;;
8230;SDS011;4156;50.908;6.974;2023-07-24T05:41:42;3.97;;;3.33;;
8230;SDS011;4156;50.908;6.974;2023-07-24T05:44:08;3.70;;;2.83;;
8230;SDS011;4156;50.908;6.974;2023-07-24T05:46:33;3.97;;;3.47;;
8230;SDS011;4156;50.908;6.974;2023-07-24T05:48:59;4.83;;;3.20;;
8230;SDS011;4156;50.908;6.974;2023-07-24T05:51:27;5.03;;;3.50;;
8230;SDS011;4156;50.908;6.974;2023-07-24T05:53:53;5.63;;;3.87;;
8230;SDS011;4156;50.908;6.974;2023-07-24T05:56:18;6.20;;;3.47;;
8230;SDS011;4156;50.908;6.974;2023-07-24T05:58:44;4.77;;;3.33;;
8230;SDS011;4156;50.908;6.974;2023-07-24T06:01:09;4.40;;;3.00;;
8230;SDS011;4156;50.908;6.974;2023-07-24T06:03:35;4.67;;;3.43;;
8230;SDS011;4156;50.908;6.974;2023-07-24T06:06:01;5.30;;;3.17;;
8230;SDS011;4156;50.908;6.974;2023-07-24T06:08:27;3.90;;;3.07;;
8230;SDS011;4156;50.908;6.974;2023-07-24T06:10:52;5.43;;;3.30;;
8230;SDS011;4156;50.908;6.974;2023-07-24T06:13:18;5.30;;;3.27;;
8230;SDS011;4156;50.908;6.974;2023-07-24T06:15:46;4.27;;;3.30;;
8230;SDS011;4156;50.908;6.974;2023-07-24T06:18:13;6.03;;;4.03;;
8230;SDS011;4156;50.908;6.974;2023-07-24T06:20:39;4.80;;;3.30;;
8230;SDS011;4156;50.908;6.974;2023-07-24T06:23:04;3.77;;;2.90;;
8230;SDS011;4156;50.908;6.974;2023-07-24T06:25:30;4.67;;;3.20;;
8230;SDS011;4156;50.908;6.974;2023-07-24T06:27:56;4.13;;;3.40;;
8230;SDS011;4156;50.908;6.974;2023-07-24T06:30:22;3.90;;;3.20;;
8230;SDS011;4156;50.908;6.974;2023-07-24T06:32:47;8.13;;;3.63;;
8230;SDS011;4156;50.908;6.974;2023-07-24T06:35:13;5.33;;;3.40;;
8230;SDS011;4156;50.908;6.974;2023-07-24T06:37:39;5.10;;;3.83;;
8230;SDS011;4156;50.908;6.974;2023-07-24T06:40:05;3.70;;;3.00;;
8230;SDS011;4156;50.908;6.974;2023-07-24T06:42:32;4.13;;;3.27;;
8230;SDS011;4156;50.908;6.974;2023-07-24T06:44:57;4.50;;;3.30;;
8230;SDS011;4156;50.908;6.974;2023-07-24T06:47:23;7.00;;;3.37;;
8230;SDS011;4156;50.908;6.974;2023-07-24T06:49:49;3.77;;;3.10;;
8230;SDS011;4156;50.908;6.974;2023-07-24T06:52:15;5.00;;;3.50;;
8230;SDS011;4156;50.908;6.974;2023-07-24T06:54:40;5.50;;;3.47;;
8230;SDS011;4156;50.908;6.974;2023-07-24T06:57:06;5.60;;;3.60;;
8230;SDS011;4156;50.908;6.974;2023-07-24T06:59:31;4.13;;;3.10;;
8230;SDS011;4156;50.908;6.974;2023-07-24T07:01:57;4.77;;;3.27;;
8230;SDS011;4156;50.908;6.974;2023-07-24T07:04:22;4.93;;;3.17;;
8230;SDS011;4156;50.908;6.974;2023-07-24T07:06:48;5.20;;;3.23;;
8230;SDS011;4156;50.908;6.974;2023-07-24T07:09:13;5.27;;;3.10;;
8230;SDS011;4156;50.908;6.974;2023-07-24T07:11:39;4.97;;;3.73;;
8230;SDS011;4156;50.908;6.974;2023-07-24T07:14:04;4.83;;;3.70;;
8230;SDS011;4156;50.908;6.974;2023-07-24T07:16:30;4.47;;;3.07;;
8230;SDS011;4156;50.908;6.974;2023-07-24T07:18:55;3.70;;;3.00;;
8230;SDS011;4156;50.908;6.974;2023-07-24T07:21:21;5.33;;;3.27;;
8230;SDS011;4156;50.908;6.974;2023-07-24T07:23:46;4.67;;;3.10;;
8230;SDS011;4156;50.908;6.974;2023-07-24T07:26:12;3.73;;;3.00;;
8230;SDS011;4156;50.908;6.974;2023-07-24T07:28:37;4.10;;;3.13;;
8230;SDS011;4156;50.908;6.974;2023-07-24T07:31:03;5.03;;;3.30;;
8230;SDS011;4156;50.908;6.974;2023-07-24T07:33:29;3.97;;;3.37;;
8230;SDS011;4156;50.908;6.974;2023-07-24T07:35:54;3.80;;;3.13;;
8230;SDS011;4156;50.908;6.974;2023-07-24T07:38:20;3.60;;;3.30;;
8230;SDS011;4156;50.908;6.974;2023-07-24T07:40:47;4.60;;;2.97;;
8230;SDS011;4156;50.908;6.974;2023-07-24T07:43:13;4.07;;;3.67;;
8230;SDS011;4156;50.908;6.974;2023-07-24T07:45:38;3.23;;;2.67;;
8230;SDS011;4156;50.908;6.974;2023-07-24T07:48:04;4.07;;;2.80;;
8230;SDS011;4156;50.908;6.974;2023-07-24T07:50:30;4.47;;;3.00;;
8230;SDS011;4156;50.908;6.974;2023-07-24T07:52:56;3.47;;;3.00;;
8230;SDS011;4156;50.908;6.974;2023-07-24T07:55:21;4.77;;;3.00;;
8230;SDS011;4156;50.908;6.974;2023-07-24T07:57:47;3.83;;;2.83;;
8230;SDS011;4156;50.908;6.974;2023-07-24T08:00:12;4.07;;;3.10;;
8230;SDS011;4156;50.908;6.974;2023-07-24T08:02:38;3.97;;;2.90;;
8230;SDS011;4156;50.908;6.974;2023-07-24T08:05:07;3.77;;;3.00;;
8230;SDS011;4156;50.908;6.974;2023-07-24T08:07:34;4.93;;;3.00;;
8230;SDS011;4156;50.908;6.974;2023-07-24T08:09:59;3.57;;;2.67;;
8230;SDS011;4156;50.908;6.974;2023-07-24T08:12:25;3.60;;;2.50;;
8230;SDS011;4156;50.908;6.974;2023-07-24T08:14:50;4.00;;;2.60;;
8230;SDS011;4156;50.908;6.974;2023-07-24T08:17:16;4.63;;;2.80;;
8230;SDS011;4156;50.908;6.974;2023-07-24T08:19:41;3.67;;;2.90;;
8230;SDS011;4156;50.908;6.974;2023-07-24T08:22:07;4.67;;;3.17;;
8230;SDS011;4156;50.908;6.974;2023-07-24T08:24:35;4.03;;;3.00;;
8230;SDS011;4156;50.908;6.974;2023-07-24T08:27:01;3.70;;;2.87;;
8230;SDS011;4156;50.908;6.974;2023-07-24T08:29:27;3.77;;;2.80;;
8230;SDS011;4156;50.908;6.974;2023-07-24T08:31:53;3.77;;;2.90;;
8230;SDS011;4156;50.908;6.974;2023-07-24T08:34:18;3.77;;;2.80;;
8230;SDS011;4156;50.908;6.974;2023-07-24T08:36:44;4.07;;;3.10;;
8230;SDS011;4156;50.908;6.974;2023-07-24T08:39:09;3.37;;;2.60;;
8230;SDS011;4156;50.908;6.974;2023-07-24T08:41:36;3.57;;;3.03;;
8230;SDS011;4156;50.908;6.974;2023-07-24T08:44:02;4.77;;;3.10;;
8230;SDS011;4156;50.908;6.974;2023-07-24T08:46:33;4.10;;;2.80;;
8230;SDS011;4156;50.908;6.974;2023-07-24T08:49:01;3.37;;;2.77;;
8230;SDS011;4156;50.908;6.974;2023-07-24T08:51:26;4.87;;;2.80;;
8230;SDS011;4156;50.908;6.974;2023-07-24T08:53:55;3.50;;;2.70;;
8230;SDS011;4156;50.908;6.974;2023-07-24T08:56:21;4.93;;;2.90;;
8230;SDS011;4156;50.908;6.974;2023-07-24T08:58:47;3.77;;;2.80;;
8230;SDS011;4156;50.908;6.974;2023-07-24T09:01:12;3.53;;;2.70;;
8230;SDS011;4156;50.908;6.974;2023-07-24T09:03:38;3.13;;;2.70;;
8230;SDS011;4156;50.908;6.974;2023-07-24T09:06:04;4.73;;;3.07;;
8230;SDS011;4156;50.908;6.974;2023-07-24T09:11:05;4.67;;;2.90;;
8230;SDS011;4156;50.908;6.974;2023-07-24T09:13:31;5.43;;;2.50;;
8230;SDS011;4156;50.908;6.974;2023-07-24T09:15:57;4.03;;;2.93;;
8230;SDS011;4156;50.908;6.974;2023-07-24T09:18:24;4.03;;;2.77;;
8230;SDS011;4156;50.908;6.974;2023-07-24T09:20:50;3.70;;;2.90;;
8230;SDS011;4156;50.908;6.974;2023-07-24T09:23:16;3.30;;;2.67;;
8230;SDS011;4156;50.908;6.974;2023-07-24T09:25:52;4.47;;;2.87;;
8230;SDS011;4156;50.908;6.974;2023-07-24T09:28:18;4.47;;;3.07;;
8230;SDS011;4156;50.908;6.974;2023-07-24T09:30:54;3.77;;;3.03;;
8230;SDS011;4156;50.908;6.974;2023-07-24T09:33:43;3.70;;;2.90;;
8230;SDS011;4156;50.908;6.974;2023-07-24T09:36:08;3.30;;;2.80;;
8230;SDS011;4156;50.908;6.974;2023-07-24T09:38:39;3.43;;;2.83;;
8230;SDS011;4156;50.908;6.974;2023-07-24T09:41:05;5.30;;;2.70;;
8230;SDS011;4156;50.908;6.974;2023-07-24T09:43:31;2.47;;;2.00;;
8230;SDS011;4156;50.908;6.974;2023-07-24T09:45:58;3.37;;;2.57;;
8230;SDS011;4156;50.908;6.974;2023-07-24T09:48:26;2.70;;;2.07;;
8230;SDS011;4156;50.908;6.974;2023-07-24T09:50:53;5.60;;;2.47;;
8230;SDS011;4156;50.908;6.974;2023-07-24T09:56:08;2.80;;;2.30;;
8230;SDS011;4156;50.908;6.974;2023-07-24T09:58:36;3.50;;;2.50;;
8230;SDS011;4156;50.908;6.974;2023-07-24T10:01:03;3.03;;;2.57;;
8230;SDS011;4156;50.908;6.974;2023-07-24T10:03:35;4.37;;;2.50;;
8230;SDS011;4156;50.908;6.974;2023-07-24T10:06:05;3.53;;;2.40;;
8230;SDS011;4156;50.908;6.974;2023-07-24T10:08:35;4.47;;;2.90;;
8230;SDS011;4156;50.908;6.974;2023-07-24T10:11:01;3.17;;;2.50;;
8230;SDS011;4156;50.908;6.974;2023-07-24T10:13:27;3.03;;;2.50;;
8230;SDS011;4156;50.908;6.974;2023-07-24T10:15:54;3.87;;;2.40;;
8230;SDS011;4156;50.908;6.974;2023-07-24T10:18:25;2.80;;;2.50;;
8230;SDS011;4156;50.908;6.974;2023-07-24T10:20:59;3.67;;;2.40;;
8230;SDS011;4156;50.908;6.974;2023-07-24T10:23:27;3.43;;;2.73;;
8230;SDS011;4156;50.908;6.974;2023-07-24T10:25:52;3.33;;;2.50;;
8230;SDS011;4156;50.908;6.974;2023-07-24T10:28:19;4.50;;;2.30;;
8230;SDS011;4156;50.908;6.974;2023-07-24T10:30:59;2.63;;;2.10;;
8230;SDS011;4156;50.908;6.974;2023-07-24T10:33:29;3.80;;;2.33;;
8230;SDS011;4156;50.908;6.974;2023-07-24T10:36:03;3.80;;;2.40;;
8230;SDS011;4156;50.908;6.974;2023-07-24T10:38:38;2.83;;;2.47;;
8230;SDS011;4156;50.908;6.974;2023-07-24T10:41:05;2.97;;;2.50;;
8230;SDS011;4156;50.908;6.974;2023-07-24T10:43:45;2.90;;;2.60;;
8230;SDS011;4156;50.908;6.974;2023-07-24T10:46:11;2.90;;;2.40;;
8230;SDS011;4156;50.908;6.974;2023-07-24T10:48:38;3.20;;;2.47;;
8230;SDS011;4156;50.908;6.974;2023-07-24T10:51:08;2.20;;;2.00;;
8230;SDS011;4156;50.908;6.974;2023-07-24T10:53:35;3.33;;;2.50;;
8230;SDS011;4156;50.908;6.974;2023-07-24T10:56:02;3.13;;;2.50;;
8230;SDS011;4156;50.908;6.974;2023-07-24T10:58:28;2.83;;;2.53;;
8230;SDS011;4156;50.908;6.974;2023-07-24T11:00:55;2.83;;;2.37;;
8230;SDS011;4156;50.908;6.974;2023-07-24T11:03:21;4.03;;;2.73;;
8230;SDS011;4156;50.908;6.974;2023-07-24T11:05:47;3.03;;;2.50;;
8230;SDS011;4156;50.908;6.974;2023-07-24T11:08:13;3.90;;;2.60;;
8230;SDS011;4156;50.908;6.974;2023-07-24T11:10:49;2.80;;;2.30;;
8230;SDS011;4156;50.908;6.974;2023-07-24T11:13:16;2.90;;;2.40;;
8230;SDS011;4156;50.908;6.974;2023-07-24T11:15:43;3.10;;;2.30;;
8230;SDS011;4156;50.908;6.974;2023-07-24T11:18:09;2.77;;;2.47;;
8230;SDS011;4156;50.908;6.974;2023-07-24T11:20:36;2.97;;;2.30;;
8230;SDS011;4156;50.908;6.974;2023-07-24T11:23:03;3.40;;;2.47;;
8230;SDS011;4156;50.908;6.974;2023-07-24T11:25:29;4.87;;;2.30;;
8230;SDS011;4156;50.908;6.974;2023-07-24T11:27:55;2.90;;;2.40;;
8230;SDS011;4156;50.908;6.974;2023-07-24T11:30:21;3.13;;;2.57;;
8230;SDS011;4156;50.908;6.974;2023-07-24T11:32:47;3.30;;;2.67;;
8230;SDS011;4156;50.908;6.974;2023-07-24T11:35:13;3.60;;;2.47;;
8230;SDS011;4156;50.908;6.974;2023-07-24T11:37:39;3.83;;;2.20;;
8230;SDS011;4156;50.908;6.974;2023-07-24T11:40:05;2.83;;;2.40;;
8230;SDS011;4156;50.908;6.974;2023-07-24T11:42:40;2.70;;;2.33;;
8230;SDS011;4156;50.908;6.974;2023-07-24T11:45:07;2.77;;;2.40;;
8230;SDS011;4156;50.908;6.974;2023-07-24T11:47:42;5.63;;;2.70;;
8230;SDS011;4156;50.908;6.974;2023-07-24T11:50:09;3.50;;;1.73;;
8230;SDS011;4156;50.908;6.974;2023-07-24T11:52:38;2.10;;;1.63;;
8230;SDS011;4156;50.908;6.974;2023-07-24T11:55:05;3.07;;;2.13;;
8230;SDS011;4156;50.908;6.974;2023-07-24T11:57:31;4.67;;;2.00;;
8230;SDS011;4156;50.908;6.974;2023-07-24T11:59:56;2.53;;;1.83;;
8230;SDS011;4156;50.908;6.974;2023-07-24T12:02:25;4.93;;;2.10;;
8230;SDS011;4156;50.908;6.974;2023-07-24T12:04:58;4.40;;;2.30;;
8230;SDS011;4156;50.908;6.974;2023-07-24T12:07:31;4.87;;;1.90;;
8230;SDS011;4156;50.908;6.974;2023-07-24T12:09:57;5.50;;;2.23;;
8230;SDS011;4156;50.908;6.974;2023-07-24T12:12:24;2.23;;;1.80;;
8230;SDS011;4156;50.908;6.974;2023-07-24T12:14:49;4.30;;;2.20;;
8230;SDS011;4156;50.908;6.974;2023-07-24T12:17:18;4.13;;;1.90;;
8230;SDS011;4156;50.908;6.974;2023-07-24T12:19:44;2.10;;;1.70;;
8230;SDS011;4156;50.908;6.974;2023-07-24T12:22:10;2.47;;;1.87;;
8230;SDS011;4156;50.908;6.974;2023-07-24T12:24:35;2.50;;;1.83;;
8230;SDS011;4156;50.908;6.974;2023-07-24T12:27:01;2.47;;;1.93;;
8230;SDS011;4156;50.908;6.974;2023-07-24T12:29:27;1.90;;;1.70;;
8230;SDS011;4156;50.908;6.974;2023-07-24T12:31:52;2.83;;;2.10;;
8230;SDS011;4156;50.908;6.974;2023-07-24T12:34:18;5.73;;;2.33;;
8230;SDS011;4156;50.908;6.974;2023-07-24T12:36:43;2.43;;;2.13;;
8230;SDS011;4156;50.908;6.974;2023-07-24T12:39:09;3.10;;;2.30;;
8230;SDS011;4156;50.908;6.974;2023-07-24T12:41:34;3.00;;;2.40;;
8230;SDS011;4156;50.908;6.974;2023-07-24T12:44:00;6.47;;;2.60;;
8230;SDS011;4156;50.908;6.974;2023-07-24T12:46:25;3.57;;;2.57;;
8230;SDS011;4156;50.908;6.974;2023-07-24T12:48:51;4.13;;;2.43;;
8230;SDS011;4156;50.908;6.974;2023-07-24T12:51:16;5.80;;;2.10;;
8230;SDS011;4156;50.908;6.974;2023-07-24T12:53:42;3.03;;;2.10;;
8230;SDS011;4156;50.908;6.974;2023-07-24T12:56:07;3.17;;;2.00;;
8230;SDS011;4156;50.908;6.974;2023-07-24T12:58:33;3.50;;;2.20;;
8230;SDS011;4156;50.908;6.974;2023-07-24T13:00:58;3.30;;;2.30;;
8230;SDS011;4156;50.908;6.974;2023-07-24T13:03:24;4.33;;;2.20;;
8230;SDS011;4156;50.908;6.974;2023-07-24T13:05:49;2.47;;;1.70;;
8230;SDS011;4156;50.908;6.974;2023-07-24T13:08:15;6.63;;;2.40;;
8230;SDS011;4156;50.908;6.974;2023-07-24T13:10:40;4.37;;;2.43;;
8230;SDS011;4156;50.908;6.974;2023-07-24T13:13:06;4.67;;;2.20;;
8230;SDS011;4156;50.908;6.974;2023-07-24T13:15:31;6.93;;;2.37;;
8230;SDS011;4156;50.908;6.974;2023-07-24T13:17:57;3.37;;;2.20;;
8230;SDS011;4156;50.908;6.974;2023-07-24T13:20:24;3.43;;;2.20;;
8230;SDS011;4156;50.908;6.974;2023-07-24T13:22:49;3.23;;;2.00;;
8230;SDS011;4156;50.908;6.974;2023-07-24T13:25:15;3.83;;;1.90;;
8230;SDS011;4156;50.908;6.974;2023-07-24T13:27:40;3.33;;;1.90;;
8230;SDS011;4156;50.908;6.974;2023-07-24T13:30:06;2.87;;;2.00;;
8230;SDS011;4156;50.908;6.974;2023-07-24T13:32:32;2.23;;;1.90;;
8230;SDS011;4156;50.908;6.974;2023-07-24T13:34:57;1.93;;;1.73;;
8230;SDS011;4156;50.908;6.974;2023-07-24T13:37:24;3.17;;;1.97;;
8230;SDS011;4156;50.908;6.974;2023-07-24T13:39:50;6.93;;;2.00;;
8230;SDS011;4156;50.908;6.974;2023-07-24T13:42:16;2.87;;;2.20;;
8230;SDS011;4156;50.908;6.974;2023-07-24T13:44:42;3.10;;;2.23;;
8230;SDS011;4156;50.908;6.974;2023-07-24T13:47:07;2.27;;;2.07;;
8230;SDS011;4156;50.908;6.974;2023-07-24T13:49:33;3.50;;;2.20;;
8230;SDS011;4156;50.908;6.974;2023-07-24T13:51:58;4.37;;;2.13;;
8230;SDS011;4156;50.908;6.974;2023-07-24T13:54:24;3.07;;;2.03;;
8230;SDS011;4156;50.908;6.974;2023-07-24T13:56:49;2.43;;;2.00;;
8230;SDS011;4156;50.908;6.974;2023-07-24T13:59:15;3.33;;;2.50;;
8230;SDS011;4156;50.908;6.974;2023-07-24T14:01:40;3.03;;;2.20;;
8230;SDS011;4156;50.908;6.974;2023-07-24T14:04:06;3.67;;;2.23;;
8230;SDS011;4156;50.908;6.974;2023-07-24T14:06:31;2.30;;;2.10;;
8230;SDS011;4156;50.908;6.974;2023-07-24T14:08:57;4.53;;;2.80;;
8230;SDS011;4156;50.908;6.974;2023-07-24T14:11:22;5.27;;;2.40;;
8230;SDS011;4156;50.908;6.974;2023-07-24T14:13:49;3.20;;;2.37;;
8230;SDS011;4156;50.908;6.974;2023-07-24T14:16:15;4.40;;;2.50;;
8230;SDS011;4156;50.908;6.974;2023-07-24T14:18:40;3.40;;;2.20;;
8230;SDS011;4156;50.908;6.974;2023-07-24T14:21:06;5.00;;;2.40;;
8230;SDS011;4156;50.908;6.974;2023-07-24T14:23:31;4.70;;;2.40;;
8230;SDS011;4156;50.908;6.974;2023-07-24T14:25:57;4.73;;;2.27;;
8230;SDS011;4156;50.908;6.974;2023-07-24T14:28:22;3.57;;;2.10;;
8230;SDS011;4156;50.908;6.974;2023-07-24T14:30:48;2.17;;;1.90;;
8230;SDS011;4156;50.908;6.974;2023-07-24T14:33:13;1.97;;;1.57;;
8230;SDS011;4156;50.908;6.974;2023-07-24T14:35:39;1.50;;;1.40;;
8230;SDS011;4156;50.908;6.974;2023-07-24T14:38:04;1.60;;;1.47;;
8230;SDS011;4156;50.908;6.974;2023-07-24T14:40:30;2.07;;;1.50;;
8230;SDS011;4156;50.908;6.974;2023-07-24T14:42:56;2.40;;;1.63;;
8230;SDS011;4156;50.908;6.974;2023-07-24T14:45:21;1.90;;;1.70;;
8230;SDS011;4156;50.908;6.974;2023-07-24T14:47:47;2.10;;;1.80;;
8230;SDS011;4156;50.908;6.974;2023-07-24T14:50:13;2.27;;;1.70;;
8230;SDS011;4156;50.908;6.974;2023-07-24T14:52:39;2.10;;;1.40;;
8230;SDS011;4156;50.908;6.974;2023-07-24T14:55:04;1.90;;;1.70;;
8230;SDS011;4156;50.908;6.974;2023-07-24T14:57:31;1.50;;;1.40;;
8230;SDS011;4156;50.908;6.974;2023-07-24T14:59:57;1.73;;;1.63;;
8230;SDS011;4156;50.908;6.974;2023-07-24T15:02:23;1.70;;;1.60;;
8230;SDS011;4156;50.908;6.974;2023-07-24T15:04:48;2.60;;;1.67;;
8230;SDS011;4156;50.908;6.974;2023-07-24T15:07:14;1.73;;;1.60;;
8230;SDS011;4156;50.908;6.974;2023-07-24T15:09:39;2.10;;;1.63;;
8230;SDS011;4156;50.908;6.974;2023-07-24T15:12:05;2.03;;;1.60;;
8230;SDS011;4156;50.908;6.974;2023-07-24T15:14:30;2.77;;;1.80;;
8230;SDS011;4156;50.908;6.974;2023-07-24T15:16:56;1.63;;;1.50;;